EDSB Airport Information

Runway Information
Runway 03 Length 9787 ft width 148 ft
Elevation 405 ft Threshold 830 ft Heading 32
Runway 21 Length 9787 ft Width 148 ft
Elevation 404 ft Threshold 830 ft Heading 212
Airport Frequencies
Type AAS Name REIMS INFO Frequency 124.1 MHZ
Type APP Name STRASSBOUR Frequency 119.45 MHZ
Type ATIS Name BADEN ATIS Frequency 121.275 MHZ
Type GND Name BADEN GND Frequency 121.825 MHZ
Type INFO Name LANGEN INF Frequency 128.95 MHZ
Type TWR Name BADEN TWR Frequency 134.1 MHZ
Airport Navaids
Type NDB Name Karlsruhe Baden Baden Frequency 431 KHZ
Type DME Name Karlsruhe Baden Baden Frequency 115800 KHZ
Airport Weather Information & NOTAM
ADDS - METARS form results

(2102 UTC 21 July 2018)
 
METAR text: EDSB 212020Z 21005KT 160V230 CAVOK 20/17 Q1013
Conditions at: EDSB (KARLSRUHE/BADEN , DE) observed 2020 UTC 21 July 2018
Temperature: 20.0°C (68°F)
Dewpoint: 17.0°C (63°F) [RH = 83%]
Pressure (altimeter): 29.91 inches Hg (1013.0 mb)
Winds: from the SSW (210 degrees) at 6 MPH (5 knots; 2.6 m/s)
Visibility: 6 or more miles (10+ km)
Ceiling: ceiling and visibility are OK
Clouds: unknown
Weather: no significant weather observed at this time